MTNO2: Tom Steed Lake

                                SHEF ID:       MTNO2     Tom Steed Lake
STATION TYPE: RESERVOIR
Flood Pool: Bottom = 1411.00, Top = 1414.00

PRECIP ELEVATION STORAGE INFLOW RELEASE VOLTAGE BAT-LOAD
in ft ac-ft cfs cfs volt volt
Ccp-Rev Ccp-Rev Ccp-Rev Rev-Regi Rev-Regi Ccp-Rev Ccp-Rev
(America/Chicago)
03/15 00:00 0.00 1407.49 76181 0 0 12.73 12.49
03/15 01:00 0.00 1407.49 76181 0 0 12.65 12.49
03/15 02:00 0.00 1407.50 76240 0 0 12.65 12.49
03/15 03:00 0.00 1407.50 76240 0 0 12.65 12.41
03/15 04:00 0.00 1407.50 76240 0 0 12.65 12.41
03/15 05:00 0.00 1407.50 76240 0 0 12.65 12.41
03/15 06:00 0.00 1407.50 76240 144 0 12.65 12.41
03/15 07:00 0.00 1407.50 76240 144 0 12.65 12.41
03/15 08:00 0.00 1407.51 76300 432 0 12.57 12.41
03/15 09:00 0.00 1407.51 76300 1081 0 12.97 12.49
03/15 10:00 0.00 1407.54 76479 1153 0 13.53 13.05
03/15 11:00 0.00 1407.63 77015 1009 0 13.37 13.29
03/15 12:00 0.00 1407.66 77195 1009 0 13.29 13.21
03/15 13:00 0.00 1407.67 77255 721 0 13.68 13.05
03/15 14:00 0.00 1407.66 77195 73 0 13.44 13.05
03/15 15:00 0.00 1407.65 77135 0 0 13.44 13.05
03/15 16:00 0.00 1407.66 77195 0 0 14.16 12.97
03/15 17:00 0.00 1407.62 76956 0 0 13.37 12.97
03/15 18:00 0.00 1407.61 76896 0 0 13.13 12.97
03/15 19:00 0.00 1407.59 76777 0 0 12.97 12.81
03/15 20:00 0.00 1407.58 76717 0 0 12.73 12.65
03/15 21:00 0.00 1407.56 76598 0 0 12.73 12.49
03/15 22:00 0.00 1407.53 76419 0 0 12.65 12.49
03/15 23:00 0.00 1407.52 76360 ---- ---- 12.65 12.41
Data processed at Mon 16Mar2026 04:34 GMT

NOTICE: If you are parsing this page

Please convert to using our Data API. Starting early 2026 we will be migrating to: https://water.usace.army.mil with modern pages rendered in JavaScript. When this migration completes you will no longer be able to scrape this page! CWMSDataAPI (CDA)

Timeseries IDs (TSIDs)

TSIDs used from left to right in the data table
TOMS.Precip-Inc.Total.1Hour.1Hour.Ccp-Rev
TOMS.Elev.Inst.1Hour.0.Ccp-Rev
TOMS.Stor.Inst.1Hour.0.Ccp-Rev
TOMS.Flow-Res In.Ave.1Hour.1Hour.Rev-Regi-Computed
TOMS.Flow-Res Out.Inst.1Hour.0.Rev-Regi-Flowgroup
TOMS.Volt-Battery.Inst.1Hour.0.Ccp-Rev
TOMS.Volt-Battery Load.Inst.1Hour.0.Ccp-Rev

                            

All information presented herein is the property of the government of the United States of America and may be revised or deleted at any time without prior notice. Dissemination of this information without the expressed written consent of the Public Affairs Office, Tulsa District U.S. Army Corps of Engineers is strictly prohibited. These data are gathered electronically and, as presented, have NOT undergone any form of quality control. These data are NOT guaranteed to be valid or correct.